sensor_id;sensor_type;location;lat;lon;timestamp;P1;durP1;ratioP1;P2;durP2;ratioP2
15848;SDS011;8024;48.708;9.394;2023-07-09T00:02:12;3.15;;;2.05;;
15848;SDS011;8024;48.708;9.394;2023-07-09T00:04:40;3.08;;;2.20;;
15848;SDS011;8024;48.708;9.394;2023-07-09T00:07:11;2.40;;;2.20;;
15848;SDS011;8024;48.708;9.394;2023-07-09T00:09:43;5.95;;;2.42;;
15848;SDS011;8024;48.708;9.394;2023-07-09T00:12:12;3.00;;;2.23;;
15848;SDS011;8024;48.708;9.394;2023-07-09T00:14:40;3.30;;;2.00;;
15848;SDS011;8024;48.708;9.394;2023-07-09T00:17:09;2.78;;;2.28;;
15848;SDS011;8024;48.708;9.394;2023-07-09T00:19:37;2.58;;;2.20;;
15848;SDS011;8024;48.708;9.394;2023-07-09T00:22:10;2.47;;;1.85;;
15848;SDS011;8024;48.708;9.394;2023-07-09T00:24:44;3.60;;;2.60;;
15848;SDS011;8024;48.708;9.394;2023-07-09T00:27:16;3.40;;;2.22;;
15848;SDS011;8024;48.708;9.394;2023-07-09T00:29:45;3.40;;;2.10;;
15848;SDS011;8024;48.708;9.394;2023-07-09T00:32:12;2.73;;;2.43;;
15848;SDS011;8024;48.708;9.394;2023-07-09T00:34:41;3.40;;;2.40;;
15848;SDS011;8024;48.708;9.394;2023-07-09T00:37:14;3.08;;;2.50;;
15848;SDS011;8024;48.708;9.394;2023-07-09T00:39:43;5.03;;;2.50;;
15848;SDS011;8024;48.708;9.394;2023-07-09T00:42:12;2.60;;;2.30;;
15848;SDS011;8024;48.708;9.394;2023-07-09T00:44:42;2.95;;;2.75;;
15848;SDS011;8024;48.708;9.394;2023-07-09T00:50:03;3.42;;;2.67;;
15848;SDS011;8024;48.708;9.394;2023-07-09T00:52:37;3.55;;;2.45;;
15848;SDS011;8024;48.708;9.394;2023-07-09T00:55:11;5.20;;;2.55;;
15848;SDS011;8024;48.708;9.394;2023-07-09T00:57:41;2.50;;;1.90;;
15848;SDS011;8024;48.708;9.394;2023-07-09T01:00:11;2.40;;;2.10;;
15848;SDS011;8024;48.708;9.394;2023-07-09T01:02:43;3.30;;;2.35;;
15848;SDS011;8024;48.708;9.394;2023-07-09T01:05:13;2.83;;;2.33;;
15848;SDS011;8024;48.708;9.394;2023-07-09T01:07:46;3.13;;;2.63;;
15848;SDS011;8024;48.708;9.394;2023-07-09T01:10:13;3.10;;;2.33;;
15848;SDS011;8024;48.708;9.394;2023-07-09T01:12:42;2.90;;;2.70;;
15848;SDS011;8024;48.708;9.394;2023-07-09T01:15:11;5.38;;;2.70;;
15848;SDS011;8024;48.708;9.394;2023-07-09T01:17:40;5.03;;;2.60;;
15848;SDS011;8024;48.708;9.394;2023-07-09T01:20:13;3.50;;;2.67;;
15848;SDS011;8024;48.708;9.394;2023-07-09T01:22:47;2.70;;;2.50;;
15848;SDS011;8024;48.708;9.394;2023-07-09T01:25:15;4.63;;;2.60;;
15848;SDS011;8024;48.708;9.394;2023-07-09T01:27:43;3.27;;;2.03;;
15848;SDS011;8024;48.708;9.394;2023-07-09T01:30:16;4.50;;;2.67;;
15848;SDS011;8024;48.708;9.394;2023-07-09T01:32:47;3.87;;;2.50;;
15848;SDS011;8024;48.708;9.394;2023-07-09T01:35:15;2.60;;;2.03;;
15848;SDS011;8024;48.708;9.394;2023-07-09T01:37:43;4.60;;;2.23;;
15848;SDS011;8024;48.708;9.394;2023-07-09T01:40:15;2.53;;;2.10;;
15848;SDS011;8024;48.708;9.394;2023-07-09T01:42:45;4.37;;;2.70;;
15848;SDS011;8024;48.708;9.394;2023-07-09T01:45:13;2.87;;;2.53;;
15848;SDS011;8024;48.708;9.394;2023-07-09T01:47:42;3.57;;;2.40;;
15848;SDS011;8024;48.708;9.394;2023-07-09T01:50:10;3.47;;;2.37;;
15848;SDS011;8024;48.708;9.394;2023-07-09T01:52:38;3.10;;;2.43;;
15848;SDS011;8024;48.708;9.394;2023-07-09T01:55:07;3.70;;;2.70;;
15848;SDS011;8024;48.708;9.394;2023-07-09T01:57:37;2.70;;;2.50;;
15848;SDS011;8024;48.708;9.394;2023-07-09T02:00:06;2.43;;;2.23;;
15848;SDS011;8024;48.708;9.394;2023-07-09T02:02:36;3.07;;;2.40;;
15848;SDS011;8024;48.708;9.394;2023-07-09T02:05:04;3.03;;;2.80;;
15848;SDS011;8024;48.708;9.394;2023-07-09T02:07:32;2.80;;;2.00;;
15848;SDS011;8024;48.708;9.394;2023-07-09T02:09:59;2.97;;;2.40;;
15848;SDS011;8024;48.708;9.394;2023-07-09T02:12:26;2.80;;;2.47;;
15848;SDS011;8024;48.708;9.394;2023-07-09T02:14:54;2.43;;;2.23;;
15848;SDS011;8024;48.708;9.394;2023-07-09T02:17:22;2.73;;;2.13;;
15848;SDS011;8024;48.708;9.394;2023-07-09T02:19:49;3.43;;;2.50;;
15848;SDS011;8024;48.708;9.394;2023-07-09T02:22:16;2.43;;;2.10;;
15848;SDS011;8024;48.708;9.394;2023-07-09T02:24:44;2.40;;;2.20;;
15848;SDS011;8024;48.708;9.394;2023-07-09T02:27:14;4.30;;;2.67;;
15848;SDS011;8024;48.708;9.394;2023-07-09T02:29:43;2.40;;;2.20;;
15848;SDS011;8024;48.708;9.394;2023-07-09T02:32:13;3.20;;;2.57;;
15848;SDS011;8024;48.708;9.394;2023-07-09T02:34:44;4.03;;;3.00;;
15848;SDS011;8024;48.708;9.394;2023-07-09T02:37:13;3.03;;;2.40;;
15848;SDS011;8024;48.708;9.394;2023-07-09T02:39:42;3.57;;;2.70;;
15848;SDS011;8024;48.708;9.394;2023-07-09T02:42:10;3.53;;;2.70;;
15848;SDS011;8024;48.708;9.394;2023-07-09T02:44:38;4.30;;;2.50;;
15848;SDS011;8024;48.708;9.394;2023-07-09T02:47:06;2.93;;;2.60;;
15848;SDS011;8024;48.708;9.394;2023-07-09T02:49:35;2.93;;;2.50;;
15848;SDS011;8024;48.708;9.394;2023-07-09T02:52:02;4.03;;;2.60;;
15848;SDS011;8024;48.708;9.394;2023-07-09T02:54:30;2.97;;;2.23;;
15848;SDS011;8024;48.708;9.394;2023-07-09T02:56:57;3.63;;;2.20;;
15848;SDS011;8024;48.708;9.394;2023-07-09T02:59:24;2.70;;;2.47;;
15848;SDS011;8024;48.708;9.394;2023-07-09T03:01:54;2.83;;;2.63;;
15848;SDS011;8024;48.708;9.394;2023-07-09T03:04:21;4.60;;;3.17;;
15848;SDS011;8024;48.708;9.394;2023-07-09T03:06:50;3.40;;;2.73;;
15848;SDS011;8024;48.708;9.394;2023-07-09T03:09:17;5.43;;;3.60;;
15848;SDS011;8024;48.708;9.394;2023-07-09T03:11:45;2.67;;;2.47;;
15848;SDS011;8024;48.708;9.394;2023-07-09T03:14:12;3.57;;;2.77;;
15848;SDS011;8024;48.708;9.394;2023-07-09T03:16:39;3.70;;;2.93;;
15848;SDS011;8024;48.708;9.394;2023-07-09T03:19:06;3.57;;;3.13;;
15848;SDS011;8024;48.708;9.394;2023-07-09T03:21:33;6.27;;;3.13;;
15848;SDS011;8024;48.708;9.394;2023-07-09T03:24:02;3.37;;;3.07;;
15848;SDS011;8024;48.708;9.394;2023-07-09T03:26:30;4.63;;;2.93;;
15848;SDS011;8024;48.708;9.394;2023-07-09T03:28:57;4.03;;;3.13;;
15848;SDS011;8024;48.708;9.394;2023-07-09T03:31:24;4.23;;;2.63;;
15848;SDS011;8024;48.708;9.394;2023-07-09T03:33:52;4.37;;;3.10;;
15848;SDS011;8024;48.708;9.394;2023-07-09T03:36:19;3.87;;;2.93;;
15848;SDS011;8024;48.708;9.394;2023-07-09T03:38:47;5.10;;;3.23;;
15848;SDS011;8024;48.708;9.394;2023-07-09T03:41:15;4.13;;;2.77;;
15848;SDS011;8024;48.708;9.394;2023-07-09T03:43:43;3.03;;;2.80;;
15848;SDS011;8024;48.708;9.394;2023-07-09T03:46:10;4.13;;;2.63;;
15848;SDS011;8024;48.708;9.394;2023-07-09T03:48:37;3.90;;;3.10;;
15848;SDS011;8024;48.708;9.394;2023-07-09T03:51:04;3.00;;;2.67;;
15848;SDS011;8024;48.708;9.394;2023-07-09T03:53:31;4.20;;;3.03;;
15848;SDS011;8024;48.708;9.394;2023-07-09T03:55:59;4.77;;;3.23;;
15848;SDS011;8024;48.708;9.394;2023-07-09T03:58:28;3.80;;;3.40;;
15848;SDS011;8024;48.708;9.394;2023-07-09T04:00:55;3.90;;;3.50;;
15848;SDS011;8024;48.708;9.394;2023-07-09T04:03:22;5.13;;;3.50;;
15848;SDS011;8024;48.708;9.394;2023-07-09T04:05:49;3.67;;;3.23;;
15848;SDS011;8024;48.708;9.394;2023-07-09T04:08:17;3.93;;;3.53;;
15848;SDS011;8024;48.708;9.394;2023-07-09T04:10:45;3.97;;;2.43;;
15848;SDS011;8024;48.708;9.394;2023-07-09T04:13:12;3.57;;;2.63;;
15848;SDS011;8024;48.708;9.394;2023-07-09T04:15:41;5.20;;;3.13;;
15848;SDS011;8024;48.708;9.394;2023-07-09T04:18:08;3.40;;;2.97;;
15848;SDS011;8024;48.708;9.394;2023-07-09T04:20:35;4.87;;;3.20;;
15848;SDS011;8024;48.708;9.394;2023-07-09T04:23:02;3.50;;;3.20;;
15848;SDS011;8024;48.708;9.394;2023-07-09T04:25:29;3.43;;;3.10;;
15848;SDS011;8024;48.708;9.394;2023-07-09T04:27:56;4.27;;;2.63;;
15848;SDS011;8024;48.708;9.394;2023-07-09T04:30:24;2.93;;;2.57;;
15848;SDS011;8024;48.708;9.394;2023-07-09T04:32:53;4.93;;;3.17;;
15848;SDS011;8024;48.708;9.394;2023-07-09T04:35:20;3.57;;;2.93;;
15848;SDS011;8024;48.708;9.394;2023-07-09T04:37:47;4.10;;;2.77;;
15848;SDS011;8024;48.708;9.394;2023-07-09T04:40:14;3.50;;;3.20;;
15848;SDS011;8024;48.708;9.394;2023-07-09T04:42:44;3.03;;;2.73;;
15848;SDS011;8024;48.708;9.394;2023-07-09T04:45:11;3.20;;;2.90;;
15848;SDS011;8024;48.708;9.394;2023-07-09T04:47:39;4.83;;;3.17;;
15848;SDS011;8024;48.708;9.394;2023-07-09T04:50:08;3.20;;;2.67;;
15848;SDS011;8024;48.708;9.394;2023-07-09T04:52:36;3.00;;;2.73;;
15848;SDS011;8024;48.708;9.394;2023-07-09T04:55:04;4.00;;;2.90;;
15848;SDS011;8024;48.708;9.394;2023-07-09T04:57:32;3.67;;;3.10;;
15848;SDS011;8024;48.708;9.394;2023-07-09T04:59:59;3.20;;;2.50;;
15848;SDS011;8024;48.708;9.394;2023-07-09T05:02:29;3.20;;;2.90;;
15848;SDS011;8024;48.708;9.394;2023-07-09T05:04:57;4.00;;;3.03;;
15848;SDS011;8024;48.708;9.394;2023-07-09T05:07:26;3.97;;;2.87;;
15848;SDS011;8024;48.708;9.394;2023-07-09T05:09:53;4.37;;;2.90;;
15848;SDS011;8024;48.708;9.394;2023-07-09T05:12:20;3.47;;;3.20;;
15848;SDS011;8024;48.708;9.394;2023-07-09T05:14:47;3.93;;;2.77;;
15848;SDS011;8024;48.708;9.394;2023-07-09T05:17:14;3.87;;;2.83;;
15848;SDS011;8024;48.708;9.394;2023-07-09T05:19:41;4.20;;;3.10;;
15848;SDS011;8024;48.708;9.394;2023-07-09T05:22:08;2.93;;;2.67;;
15848;SDS011;8024;48.708;9.394;2023-07-09T05:24:37;4.53;;;2.97;;
15848;SDS011;8024;48.708;9.394;2023-07-09T05:27:04;2.93;;;2.70;;
15848;SDS011;8024;48.708;9.394;2023-07-09T05:29:31;5.13;;;3.63;;
15848;SDS011;8024;48.708;9.394;2023-07-09T05:31:58;3.83;;;3.43;;
15848;SDS011;8024;48.708;9.394;2023-07-09T05:34:25;3.10;;;2.90;;
15848;SDS011;8024;48.708;9.394;2023-07-09T05:36:53;3.40;;;3.10;;
15848;SDS011;8024;48.708;9.394;2023-07-09T05:39:20;4.45;;;2.80;;
15848;SDS011;8024;48.708;9.394;2023-07-09T05:41:48;4.27;;;2.63;;
15848;SDS011;8024;48.708;9.394;2023-07-09T05:44:15;5.43;;;3.33;;
15848;SDS011;8024;48.708;9.394;2023-07-09T05:46:43;3.87;;;2.50;;
15848;SDS011;8024;48.708;9.394;2023-07-09T05:49:10;4.23;;;2.80;;
15848;SDS011;8024;48.708;9.394;2023-07-09T05:51:37;3.43;;;2.93;;
15848;SDS011;8024;48.708;9.394;2023-07-09T05:54:04;5.27;;;4.20;;
15848;SDS011;8024;48.708;9.394;2023-07-09T05:56:31;4.13;;;3.17;;
15848;SDS011;8024;48.708;9.394;2023-07-09T05:59:00;4.00;;;3.60;;
15848;SDS011;8024;48.708;9.394;2023-07-09T06:01:27;5.03;;;3.57;;
15848;SDS011;8024;48.708;9.394;2023-07-09T06:03:54;5.07;;;3.60;;
15848;SDS011;8024;48.708;9.394;2023-07-09T06:06:22;3.40;;;3.10;;
15848;SDS011;8024;48.708;9.394;2023-07-09T06:08:51;4.77;;;3.27;;
15848;SDS011;8024;48.708;9.394;2023-07-09T06:11:19;6.07;;;4.13;;
15848;SDS011;8024;48.708;9.394;2023-07-09T06:13:46;3.73;;;3.40;;
15848;SDS011;8024;48.708;9.394;2023-07-09T06:16:15;3.25;;;2.95;;
15848;SDS011;8024;48.708;9.394;2023-07-09T06:18:43;3.60;;;3.30;;
15848;SDS011;8024;48.708;9.394;2023-07-09T06:21:10;4.23;;;3.50;;
15848;SDS011;8024;48.708;9.394;2023-07-09T06:23:37;5.83;;;3.53;;
15848;SDS011;8024;48.708;9.394;2023-07-09T06:26:05;5.27;;;3.37;;
15848;SDS011;8024;48.708;9.394;2023-07-09T06:28:32;3.80;;;3.00;;
15848;SDS011;8024;48.708;9.394;2023-07-09T06:30:59;4.27;;;3.40;;
15848;SDS011;8024;48.708;9.394;2023-07-09T06:33:28;3.97;;;2.90;;
15848;SDS011;8024;48.708;9.394;2023-07-09T06:35:56;4.20;;;3.37;;
15848;SDS011;8024;48.708;9.394;2023-07-09T06:38:25;3.88;;;3.10;;
15848;SDS011;8024;48.708;9.394;2023-07-09T06:40:52;3.67;;;3.30;;
15848;SDS011;8024;48.708;9.394;2023-07-09T06:43:20;4.22;;;3.83;;
15848;SDS011;8024;48.708;9.394;2023-07-09T06:45:48;6.07;;;3.95;;
15848;SDS011;8024;48.708;9.394;2023-07-09T06:48:15;4.38;;;3.78;;
15848;SDS011;8024;48.708;9.394;2023-07-09T06:50:44;5.97;;;3.53;;
15848;SDS011;8024;48.708;9.394;2023-07-09T06:53:11;4.95;;;3.60;;
15848;SDS011;8024;48.708;9.394;2023-07-09T06:55:38;3.63;;;3.17;;
15848;SDS011;8024;48.708;9.394;2023-07-09T06:58:06;4.00;;;3.50;;
15848;SDS011;8024;48.708;9.394;2023-07-09T07:00:33;7.00;;;3.92;;
15848;SDS011;8024;48.708;9.394;2023-07-09T07:03:01;5.05;;;3.33;;
15848;SDS011;8024;48.708;9.394;2023-07-09T07:05:30;5.78;;;3.60;;
15848;SDS011;8024;48.708;9.394;2023-07-09T07:07:59;4.78;;;3.47;;
15848;SDS011;8024;48.708;9.394;2023-07-09T07:10:26;4.90;;;3.63;;
15848;SDS011;8024;48.708;9.394;2023-07-09T07:12:53;5.72;;;3.85;;
15848;SDS011;8024;48.708;9.394;2023-07-09T07:15:20;5.90;;;3.22;;
15848;SDS011;8024;48.708;9.394;2023-07-09T07:17:48;5.65;;;3.85;;
15848;SDS011;8024;48.708;9.394;2023-07-09T07:20:15;6.40;;;3.58;;
15848;SDS011;8024;48.708;9.394;2023-07-09T07:22:43;4.38;;;3.28;;
15848;SDS011;8024;48.708;9.394;2023-07-09T07:25:11;3.95;;;3.35;;
15848;SDS011;8024;48.708;9.394;2023-07-09T07:27:39;4.97;;;3.67;;
15848;SDS011;8024;48.708;9.394;2023-07-09T07:30:07;4.35;;;3.35;;
15848;SDS011;8024;48.708;9.394;2023-07-09T07:32:35;4.82;;;3.33;;
15848;SDS011;8024;48.708;9.394;2023-07-09T07:35:04;3.85;;;3.50;;
15848;SDS011;8024;48.708;9.394;2023-07-09T07:37:31;5.50;;;3.83;;
15848;SDS011;8024;48.708;9.394;2023-07-09T07:39:58;3.92;;;3.42;;
15848;SDS011;8024;48.708;9.394;2023-07-09T07:42:27;5.93;;;3.97;;
15848;SDS011;8024;48.708;9.394;2023-07-09T07:44:54;6.72;;;3.42;;
15848;SDS011;8024;48.708;9.394;2023-07-09T07:47:21;4.82;;;3.10;;
15848;SDS011;8024;48.708;9.394;2023-07-09T07:49:48;3.65;;;3.35;;
15848;SDS011;8024;48.708;9.394;2023-07-09T07:52:16;3.85;;;3.45;;
15848;SDS011;8024;48.708;9.394;2023-07-09T07:54:43;4.53;;;3.67;;
15848;SDS011;8024;48.708;9.394;2023-07-09T07:57:10;5.95;;;3.78;;
15848;SDS011;8024;48.708;9.394;2023-07-09T07:59:39;5.05;;;3.33;;
15848;SDS011;8024;48.708;9.394;2023-07-09T08:02:07;5.00;;;3.20;;
15848;SDS011;8024;48.708;9.394;2023-07-09T08:04:38;4.22;;;3.58;;
15848;SDS011;8024;48.708;9.394;2023-07-09T08:07:06;4.75;;;3.22;;
15848;SDS011;8024;48.708;9.394;2023-07-09T08:09:33;3.70;;;3.45;;
15848;SDS011;8024;48.708;9.394;2023-07-09T08:12:01;5.80;;;3.50;;
15848;SDS011;8024;48.708;9.394;2023-07-09T08:14:34;3.78;;;2.85;;
15848;SDS011;8024;48.708;9.394;2023-07-09T08:17:02;4.43;;;3.63;;
15848;SDS011;8024;48.708;9.394;2023-07-09T08:19:30;3.08;;;2.67;;
15848;SDS011;8024;48.708;9.394;2023-07-09T08:21:58;4.53;;;3.13;;
15848;SDS011;8024;48.708;9.394;2023-07-09T08:24:25;5.18;;;3.10;;
15848;SDS011;8024;48.708;9.394;2023-07-09T08:26:52;5.22;;;3.47;;
15848;SDS011;8024;48.708;9.394;2023-07-09T08:29:19;4.75;;;3.55;;
15848;SDS011;8024;48.708;9.394;2023-07-09T08:31:47;3.78;;;2.92;;
15848;SDS011;8024;48.708;9.394;2023-07-09T08:34:15;5.72;;;3.35;;
15848;SDS011;8024;48.708;9.394;2023-07-09T08:36:42;4.78;;;3.13;;
15848;SDS011;8024;48.708;9.394;2023-07-09T08:39:10;3.25;;;2.95;;
15848;SDS011;8024;48.708;9.394;2023-07-09T08:41:40;4.30;;;2.63;;
15848;SDS011;8024;48.708;9.394;2023-07-09T08:44:17;5.57;;;2.95;;
15848;SDS011;8024;48.708;9.394;2023-07-09T08:47:00;4.53;;;2.72;;
15848;SDS011;8024;48.708;9.394;2023-07-09T08:49:35;3.45;;;2.85;;
15848;SDS011;8024;48.708;9.394;2023-07-09T08:52:09;3.83;;;3.05;;
15848;SDS011;8024;48.708;9.394;2023-07-09T08:54:41;5.70;;;3.20;;
15848;SDS011;8024;48.708;9.394;2023-07-09T08:57:14;5.82;;;3.20;;
15848;SDS011;8024;48.708;9.394;2023-07-09T08:59:46;5.03;;;3.30;;
15848;SDS011;8024;48.708;9.394;2023-07-09T09:02:16;4.72;;;3.28;;
15848;SDS011;8024;48.708;9.394;2023-07-09T09:04:55;7.63;;;2.95;;
15848;SDS011;8024;48.708;9.394;2023-07-09T09:07:24;5.28;;;3.08;;
15848;SDS011;8024;48.708;9.394;2023-07-09T09:10:01;5.35;;;2.83;;
15848;SDS011;8024;48.708;9.394;2023-07-09T09:12:33;3.58;;;2.53;;
15848;SDS011;8024;48.708;9.394;2023-07-09T09:15:08;4.20;;;2.88;;
15848;SDS011;8024;48.708;9.394;2023-07-09T09:17:41;4.05;;;3.17;;
15848;SDS011;8024;48.708;9.394;2023-07-09T09:20:10;3.88;;;2.63;;
15848;SDS011;8024;48.708;9.394;2023-07-09T09:22:43;4.53;;;2.70;;
15848;SDS011;8024;48.708;9.394;2023-07-09T09:25:16;3.90;;;2.78;;
15848;SDS011;8024;48.708;9.394;2023-07-09T09:27:48;4.55;;;3.42;;
15848;SDS011;8024;48.708;9.394;2023-07-09T09:30:17;4.63;;;2.55;;
15848;SDS011;8024;48.708;9.394;2023-07-09T09:32:47;4.25;;;2.70;;
15848;SDS011;8024;48.708;9.394;2023-07-09T09:35:19;3.97;;;2.58;;
15848;SDS011;8024;48.708;9.394;2023-07-09T09:37:53;3.20;;;2.35;;
15848;SDS011;8024;48.708;9.394;2023-07-09T09:40:22;4.00;;;2.90;;
15848;SDS011;8024;48.708;9.394;2023-07-09T09:42:50;3.53;;;2.75;;
15848;SDS011;8024;48.708;9.394;2023-07-09T09:45:20;5.47;;;2.67;;
15848;SDS011;8024;48.708;9.394;2023-07-09T09:47:52;4.75;;;2.45;;
15848;SDS011;8024;48.708;9.394;2023-07-09T09:50:25;2.95;;;2.13;;
15848;SDS011;8024;48.708;9.394;2023-07-09T09:52:58;2.83;;;1.98;;
15848;SDS011;8024;48.708;9.394;2023-07-09T09:55:27;3.92;;;2.00;;
15848;SDS011;8024;48.708;9.394;2023-07-09T09:57:57;4.18;;;2.35;;
15848;SDS011;8024;48.708;9.394;2023-07-09T10:00:26;4.93;;;3.05;;
15848;SDS011;8024;48.708;9.394;2023-07-09T10:02:56;4.97;;;2.65;;
15848;SDS011;8024;48.708;9.394;2023-07-09T10:05:27;2.90;;;2.33;;
15848;SDS011;8024;48.708;9.394;2023-07-09T10:07:59;2.88;;;2.53;;
15848;SDS011;8024;48.708;9.394;2023-07-09T10:10:32;4.78;;;2.80;;
15848;SDS011;8024;48.708;9.394;2023-07-09T10:13:02;4.38;;;2.05;;
15848;SDS011;8024;48.708;9.394;2023-07-09T10:15:39;3.08;;;2.20;;
15848;SDS011;8024;48.708;9.394;2023-07-09T10:18:12;2.85;;;1.85;;
15848;SDS011;8024;48.708;9.394;2023-07-09T10:20:51;2.95;;;2.10;;
15848;SDS011;8024;48.708;9.394;2023-07-09T10:23:29;4.45;;;2.33;;
15848;SDS011;8024;48.708;9.394;2023-07-09T10:26:03;4.15;;;2.20;;
15848;SDS011;8024;48.708;9.394;2023-07-09T10:31:30;3.08;;;2.33;;
15848;SDS011;8024;48.708;9.394;2023-07-09T10:34:10;3.83;;;1.95;;
15848;SDS011;8024;48.708;9.394;2023-07-09T10:37:04;4.00;;;2.08;;
15848;SDS011;8024;48.708;9.394;2023-07-09T10:39:46;4.97;;;2.35;;
15848;SDS011;8024;48.708;9.394;2023-07-09T10:42:18;2.95;;;2.45;;
15848;SDS011;8024;48.708;9.394;2023-07-09T10:44:51;4.68;;;2.38;;
15848;SDS011;8024;48.708;9.394;2023-07-09T10:47:35;4.47;;;2.55;;
15848;SDS011;8024;48.708;9.394;2023-07-09T10:50:09;4.60;;;2.55;;
15848;SDS011;8024;48.708;9.394;2023-07-09T10:52:41;4.38;;;2.33;;
15848;SDS011;8024;48.708;9.394;2023-07-09T10:55:13;6.07;;;2.88;;
15848;SDS011;8024;48.708;9.394;2023-07-09T10:57:45;3.13;;;2.35;;
15848;SDS011;8024;48.708;9.394;2023-07-09T11:00:16;4.53;;;2.40;;
15848;SDS011;8024;48.708;9.394;2023-07-09T11:02:45;3.45;;;2.22;;
15848;SDS011;8024;48.708;9.394;2023-07-09T11:05:20;2.90;;;2.33;;
15848;SDS011;8024;48.708;9.394;2023-07-09T11:07:58;4.47;;;2.50;;
15848;SDS011;8024;48.708;9.394;2023-07-09T11:10:29;2.28;;;2.08;;
15848;SDS011;8024;48.708;9.394;2023-07-09T11:12:59;4.03;;;2.53;;
15848;SDS011;8024;48.708;9.394;2023-07-09T11:15:30;4.40;;;2.78;;
15848;SDS011;8024;48.708;9.394;2023-07-09T11:18:00;2.60;;;2.38;;
15848;SDS011;8024;48.708;9.394;2023-07-09T11:20:31;2.50;;;2.30;;
15848;SDS011;8024;48.708;9.394;2023-07-09T11:25:40;5.32;;;2.55;;
15848;SDS011;8024;48.708;9.394;2023-07-09T11:28:08;5.10;;;2.83;;
15848;SDS011;8024;48.708;9.394;2023-07-09T11:30:45;6.38;;;2.60;;
15848;SDS011;8024;48.708;9.394;2023-07-09T11:33:15;6.65;;;3.03;;
15848;SDS011;8024;48.708;9.394;2023-07-09T11:35:45;4.38;;;2.65;;
15848;SDS011;8024;48.708;9.394;2023-07-09T11:38:17;5.32;;;2.90;;
15848;SDS011;8024;48.708;9.394;2023-07-09T11:40:46;4.70;;;2.55;;
15848;SDS011;8024;48.708;9.394;2023-07-09T11:43:28;2.97;;;2.70;;
15848;SDS011;8024;48.708;9.394;2023-07-09T11:45:59;4.70;;;3.15;;
15848;SDS011;8024;48.708;9.394;2023-07-09T11:48:33;6.03;;;2.97;;
15848;SDS011;8024;48.708;9.394;2023-07-09T11:51:02;5.72;;;2.97;;
15848;SDS011;8024;48.708;9.394;2023-07-09T11:53:40;6.57;;;2.85;;
15848;SDS011;8024;48.708;9.394;2023-07-09T11:56:11;4.22;;;2.78;;
15848;SDS011;8024;48.708;9.394;2023-07-09T11:58:47;3.03;;;2.45;;
15848;SDS011;8024;48.708;9.394;2023-07-09T12:01:16;4.22;;;2.78;;
15848;SDS011;8024;48.708;9.394;2023-07-09T12:03:45;2.92;;;2.33;;
15848;SDS011;8024;48.708;9.394;2023-07-09T12:06:15;4.13;;;2.38;;
15848;SDS011;8024;48.708;9.394;2023-07-09T12:08:46;4.47;;;2.55;;
15848;SDS011;8024;48.708;9.394;2023-07-09T12:11:19;4.85;;;2.83;;
15848;SDS011;8024;48.708;9.394;2023-07-09T12:13:48;6.88;;;2.60;;
15848;SDS011;8024;48.708;9.394;2023-07-09T12:16:22;2.90;;;2.42;;
15848;SDS011;8024;48.708;9.394;2023-07-09T12:18:51;3.35;;;2.33;;
15848;SDS011;8024;48.708;9.394;2023-07-09T12:21:18;5.63;;;2.92;;
15848;SDS011;8024;48.708;9.394;2023-07-09T12:23:47;6.75;;;2.88;;
15848;SDS011;8024;48.708;9.394;2023-07-09T12:26:15;4.57;;;2.55;;
15848;SDS011;8024;48.708;9.394;2023-07-09T12:28:48;5.95;;;2.65;;
15848;SDS011;8024;48.708;9.394;2023-07-09T12:31:16;6.57;;;2.67;;
15848;SDS011;8024;48.708;9.394;2023-07-09T12:33:47;3.97;;;2.40;;
15848;SDS011;8024;48.708;9.394;2023-07-09T12:36:15;6.20;;;3.17;;
15848;SDS011;8024;48.708;9.394;2023-07-09T12:38:44;3.55;;;2.33;;
15848;SDS011;8024;48.708;9.394;2023-07-09T12:41:17;4.65;;;2.10;;
15848;SDS011;8024;48.708;9.394;2023-07-09T12:43:46;4.47;;;2.58;;
15848;SDS011;8024;48.708;9.394;2023-07-09T12:46:14;5.97;;;2.75;;
15848;SDS011;8024;48.708;9.394;2023-07-09T12:48:41;2.80;;;2.28;;
15848;SDS011;8024;48.708;9.394;2023-07-09T12:51:14;2.47;;;2.28;;
15848;SDS011;8024;48.708;9.394;2023-07-09T12:53:47;4.85;;;2.38;;
15848;SDS011;8024;48.708;9.394;2023-07-09T12:56:15;3.10;;;2.35;;
15848;SDS011;8024;48.708;9.394;2023-07-09T12:58:43;6.07;;;2.42;;
15848;SDS011;8024;48.708;9.394;2023-07-09T13:01:13;5.10;;;2.35;;
15848;SDS011;8024;48.708;9.394;2023-07-09T13:03:42;3.15;;;2.65;;
15848;SDS011;8024;48.708;9.394;2023-07-09T13:06:26;3.97;;;2.65;;
15848;SDS011;8024;48.708;9.394;2023-07-09T13:08:57;3.60;;;2.47;;
15848;SDS011;8024;48.708;9.394;2023-07-09T13:11:25;5.43;;;2.88;;
15848;SDS011;8024;48.708;9.394;2023-07-09T13:13:59;5.03;;;2.50;;
15848;SDS011;8024;48.708;9.394;2023-07-09T13:16:28;2.88;;;2.20;;
15848;SDS011;8024;48.708;9.394;2023-07-09T13:18:56;6.10;;;2.63;;
15848;SDS011;8024;48.708;9.394;2023-07-09T13:21:23;4.95;;;2.58;;
15848;SDS011;8024;48.708;9.394;2023-07-09T13:23:50;3.22;;;2.55;;
15848;SDS011;8024;48.708;9.394;2023-07-09T13:26:20;3.22;;;2.33;;
15848;SDS011;8024;48.708;9.394;2023-07-09T13:28:48;3.85;;;2.40;;
15848;SDS011;8024;48.708;9.394;2023-07-09T13:31:16;4.32;;;2.42;;
15848;SDS011;8024;48.708;9.394;2023-07-09T13:33:49;4.47;;;2.25;;
15848;SDS011;8024;48.708;9.394;2023-07-09T13:36:19;4.00;;;2.83;;
15848;SDS011;8024;48.708;9.394;2023-07-09T13:38:46;4.32;;;2.40;;
15848;SDS011;8024;48.708;9.394;2023-07-09T13:41:14;4.28;;;2.92;;
15848;SDS011;8024;48.708;9.394;2023-07-09T13:43:45;4.35;;;2.38;;
15848;SDS011;8024;48.708;9.394;2023-07-09T13:46:13;3.15;;;2.50;;
15848;SDS011;8024;48.708;9.394;2023-07-09T13:48:41;3.50;;;2.40;;
15848;SDS011;8024;48.708;9.394;2023-07-09T13:51:13;4.28;;;2.40;;
15848;SDS011;8024;48.708;9.394;2023-07-09T13:53:41;3.95;;;2.88;;
15848;SDS011;8024;48.708;9.394;2023-07-09T13:56:09;4.30;;;2.75;;
15848;SDS011;8024;48.708;9.394;2023-07-09T13:58:36;3.88;;;2.83;;
15848;SDS011;8024;48.708;9.394;2023-07-09T14:01:09;3.28;;;2.67;;
15848;SDS011;8024;48.708;9.394;2023-07-09T14:03:38;4.55;;;2.80;;
15848;SDS011;8024;48.708;9.394;2023-07-09T14:06:08;5.70;;;2.70;;
15848;SDS011;8024;48.708;9.394;2023-07-09T14:08:36;4.15;;;2.97;;
15848;SDS011;8024;48.708;9.394;2023-07-09T14:11:07;4.10;;;2.70;;
15848;SDS011;8024;48.708;9.394;2023-07-09T14:13:36;4.60;;;2.70;;
15848;SDS011;8024;48.708;9.394;2023-07-09T14:16:03;3.70;;;2.78;;
15848;SDS011;8024;48.708;9.394;2023-07-09T14:18:33;5.13;;;2.80;;
15848;SDS011;8024;48.708;9.394;2023-07-09T14:21:00;3.83;;;2.97;;
15848;SDS011;8024;48.708;9.394;2023-07-09T14:23:30;5.45;;;2.95;;
15848;SDS011;8024;48.708;9.394;2023-07-09T14:25:57;3.00;;;2.45;;
15848;SDS011;8024;48.708;9.394;2023-07-09T14:28:24;3.38;;;2.30;;
15848;SDS011;8024;48.708;9.394;2023-07-09T14:30:51;2.58;;;2.38;;
15848;SDS011;8024;48.708;9.394;2023-07-09T14:33:19;3.67;;;1.98;;
15848;SDS011;8024;48.708;9.394;2023-07-09T14:35:48;4.32;;;2.33;;
15848;SDS011;8024;48.708;9.394;2023-07-09T14:38:16;3.45;;;2.15;;
15848;SDS011;8024;48.708;9.394;2023-07-09T14:40:46;2.67;;;2.17;;
15848;SDS011;8024;48.708;9.394;2023-07-09T14:43:14;4.60;;;2.90;;
15848;SDS011;8024;48.708;9.394;2023-07-09T14:45:42;4.60;;;2.40;;
15848;SDS011;8024;48.708;9.394;2023-07-09T14:48:10;2.53;;;2.13;;
15848;SDS011;8024;48.708;9.394;2023-07-09T14:50:38;3.78;;;2.55;;
15848;SDS011;8024;48.708;9.394;2023-07-09T14:53:12;3.33;;;2.50;;
15848;SDS011;8024;48.708;9.394;2023-07-09T14:55:41;4.32;;;2.42;;
15848;SDS011;8024;48.708;9.394;2023-07-09T14:58:12;4.38;;;2.03;;
15848;SDS011;8024;48.708;9.394;2023-07-09T15:00:41;5.13;;;2.88;;
15848;SDS011;8024;48.708;9.394;2023-07-09T15:03:11;3.25;;;2.35;;
15848;SDS011;8024;48.708;9.394;2023-07-09T15:05:42;4.13;;;2.70;;
15848;SDS011;8024;48.708;9.394;2023-07-09T15:08:12;3.35;;;2.55;;
15848;SDS011;8024;48.708;9.394;2023-07-09T15:10:41;3.47;;;2.80;;
15848;SDS011;8024;48.708;9.394;2023-07-09T15:13:11;4.10;;;2.45;;
15848;SDS011;8024;48.708;9.394;2023-07-09T15:15:42;4.75;;;2.45;;
15848;SDS011;8024;48.708;9.394;2023-07-09T15:18:11;3.97;;;2.85;;
15848;SDS011;8024;48.708;9.394;2023-07-09T15:20:39;3.50;;;2.47;;
15848;SDS011;8024;48.708;9.394;2023-07-09T15:23:12;2.92;;;2.60;;